SAS886 ENGM-ESSA
Flight info
| Callsign | SAS886 |
|---|---|
| Flight time | 0h 38m |
| Altitude | 29000 |
| Route | MASEV Z183 LEGPO DCT ELTOK |
| Aircraft | A319/M-SDE3FGIJ1RWXY/LB1 |
Departure
| Time | 2026-05-04 18:33 |
|---|---|
| Airport | Oslo-Gardermoen International Airport (ENGM) |
Arrival
| Time | 2026-05-04 19:11 |
|---|---|
| Airport | Stockholm-Arlanda Airport (ESSA) |
| Time | Latitude | Longitude | Altitude | Speed | Heading |
|---|---|---|---|---|---|
| 2026-05-04 18:15 | 60.19337 | 11.10346 | 680 ft | 0 kts | 16° |
| 2026-05-04 18:24 | 60.19336 | 11.10345 | 685 ft | 1 kts | 16° |
| 2026-05-04 18:24 | 60.19312 | 11.10332 | 683 ft | 4 kts | 16° |
| 2026-05-04 18:24 | 60.19291 | 11.10319 | 680 ft | 3 kts | 15° |
| 2026-05-04 18:25 | 60.19266 | 11.10312 | 681 ft | 4 kts | 351° |
| 2026-05-04 18:25 | 60.19242 | 11.10330 | 678 ft | 4 kts | 312° |
| 2026-05-04 18:25 | 60.19234 | 11.10355 | 678 ft | 0 kts | 286° |
| 2026-05-04 18:27 | 60.19235 | 11.10349 | 685 ft | 2 kts | 286° |
| 2026-05-04 18:28 | 60.19255 | 11.10319 | 683 ft | 5 kts | 347° |
| 2026-05-04 18:28 | 60.19271 | 11.10380 | 685 ft | 7 kts | 104° |
| 2026-05-04 18:28 | 60.19255 | 11.10498 | 685 ft | 10 kts | 106° |
| 2026-05-04 18:28 | 60.19233 | 11.10647 | 681 ft | 12 kts | 106° |
| 2026-05-04 18:29 | 60.19208 | 11.10822 | 685 ft | 14 kts | 106° |
| 2026-05-04 18:29 | 60.19180 | 11.11021 | 685 ft | 16 kts | 105° |
| 2026-05-04 18:29 | 60.19150 | 11.11231 | 683 ft | 13 kts | 104° |
| 2026-05-04 18:29 | 60.19212 | 11.11330 | 683 ft | 14 kts | 15° |
| 2026-05-04 18:30 | 60.19424 | 11.11454 | 682 ft | 17 kts | 16° |
| 2026-05-04 18:30 | 60.19505 | 11.11501 | 682 ft | 18 kts | 14° |
| 2026-05-04 18:30 | 60.19629 | 11.11570 | 683 ft | 19 kts | 16° |
| 2026-05-04 18:31 | 60.19711 | 11.11648 | 684 ft | 11 kts | 67° |
| 2026-05-04 18:31 | 60.19691 | 11.11807 | 682 ft | 12 kts | 120° |
| 2026-05-04 18:31 | 60.19630 | 11.11941 | 684 ft | 13 kts | 143° |
| 2026-05-04 18:31 | 60.19567 | 11.11928 | 684 ft | 3 kts | 196° |
| 2026-05-04 18:32 | 60.19565 | 11.11927 | 684 ft | 4 kts | 196° |
| 2026-05-04 18:32 | 60.19356 | 11.11806 | 683 ft | 65 kts | 196° |
| 2026-05-04 18:32 | 60.18721 | 11.11439 | 684 ft | 123 kts | 196° |
| 2026-05-04 18:32 | 60.17792 | 11.10903 | 1003 ft | 139 kts | 201° |
| 2026-05-04 18:33 | 60.16882 | 11.10385 | 1648 ft | 138 kts | 202° |
| 2026-05-04 18:33 | 60.15930 | 11.09830 | 2177 ft | 151 kts | 204° |
| 2026-05-04 18:33 | 60.14846 | 11.09186 | 2549 ft | 174 kts | 204° |
| 2026-05-04 18:33 | 60.13524 | 11.08931 | 2955 ft | 214 kts | 175° |
| 2026-05-04 18:34 | 60.12117 | 11.10559 | 3485 ft | 256 kts | 143° |
| 2026-05-04 18:34 | 60.10787 | 11.13180 | 4226 ft | 277 kts | 138° |
| 2026-05-04 18:34 | 60.09461 | 11.16061 | 5254 ft | 284 kts | 136° |
| 2026-05-04 18:34 | 60.08291 | 11.19314 | 6294 ft | 295 kts | 116° |
| 2026-05-04 18:35 | 60.07846 | 11.23361 | 7285 ft | 303 kts | 90° |
| 2026-05-04 18:35 | 60.08121 | 11.27575 | 8316 ft | 307 kts | 79° |
| 2026-05-04 18:35 | 60.08481 | 11.31832 | 9343 ft | 313 kts | 79° |
| 2026-05-04 18:35 | 60.08836 | 11.36196 | 10070 ft | 327 kts | 79° |
| 2026-05-04 18:36 | 60.09209 | 11.40856 | 10483 ft | 349 kts | 81° |
| 2026-05-04 18:36 | 60.09594 | 11.45729 | 11204 ft | 359 kts | 81° |
| 2026-05-04 18:36 | 60.09985 | 11.50712 | 12010 ft | 365 kts | 81° |
| 2026-05-04 18:36 | 60.10383 | 11.55769 | 12830 ft | 371 kts | 81° |
| 2026-05-04 18:37 | 60.10790 | 11.60934 | 13624 ft | 378 kts | 80° |
| 2026-05-04 18:37 | 60.11206 | 11.66190 | 14304 ft | 385 kts | 80° |
| 2026-05-04 18:37 | 60.11629 | 11.71555 | 14949 ft | 394 kts | 80° |
| 2026-05-04 18:37 | 60.12059 | 11.77030 | 15577 ft | 402 kts | 80° |
| 2026-05-04 18:38 | 60.12495 | 11.82622 | 16196 ft | 410 kts | 80° |
| 2026-05-04 18:38 | 60.12938 | 11.88327 | 16809 ft | 418 kts | 80° |
| 2026-05-04 18:38 | 60.13387 | 11.94145 | 17420 ft | 426 kts | 79° |
| 2026-05-04 18:38 | 60.13840 | 12.00063 | 18014 ft | 434 kts | 80° |
| 2026-05-04 18:39 | 60.14299 | 12.06108 | 18548 ft | 441 kts | 80° |
| 2026-05-04 18:39 | 60.14758 | 12.12222 | 19148 ft | 445 kts | 80° |
| 2026-05-04 18:39 | 60.15217 | 12.18402 | 19752 ft | 450 kts | 80° |
| 2026-05-04 18:39 | 60.15679 | 12.24650 | 20362 ft | 455 kts | 80° |
| 2026-05-04 18:40 | 60.16144 | 12.30958 | 20969 ft | 459 kts | 80° |
| 2026-05-04 18:40 | 60.16614 | 12.37336 | 21545 ft | 464 kts | 80° |
| 2026-05-04 18:40 | 60.17086 | 12.43776 | 22211 ft | 468 kts | 80° |
| 2026-05-04 18:40 | 60.17514 | 12.50303 | 22718 ft | 476 kts | 85° |
| 2026-05-04 18:41 | 60.17536 | 12.56979 | 23260 ft | 481 kts | 95° |
| 2026-05-04 18:41 | 60.17149 | 12.63668 | 23739 ft | 484 kts | 99° |
| 2026-05-04 18:41 | 60.16712 | 12.70395 | 24236 ft | 487 kts | 99° |
| 2026-05-04 18:41 | 60.16276 | 12.77166 | 24733 ft | 490 kts | 99° |
| 2026-05-04 18:42 | 60.15843 | 12.83967 | 25219 ft | 493 kts | 99° |
| 2026-05-04 18:42 | 60.15405 | 12.90830 | 25710 ft | 496 kts | 99° |
| 2026-05-04 18:42 | 60.14964 | 12.97716 | 26184 ft | 499 kts | 99° |
| 2026-05-04 18:42 | 60.14518 | 13.04646 | 26657 ft | 502 kts | 99° |
| 2026-05-04 18:43 | 60.14065 | 13.11606 | 27128 ft | 505 kts | 99° |
| 2026-05-04 18:43 | 60.13600 | 13.18611 | 27602 ft | 508 kts | 99° |
| 2026-05-04 18:43 | 60.13126 | 13.25651 | 28063 ft | 511 kts | 99° |
| 2026-05-04 18:43 | 60.12642 | 13.32733 | 28512 ft | 514 kts | 99° |
| 2026-05-04 18:44 | 60.12154 | 13.39846 | 28672 ft | 512 kts | 99° |
| 2026-05-04 18:44 | 60.11837 | 13.44488 | 28681 ft | 501 kts | 99° |
| 2026-05-04 18:44 | 60.11218 | 13.53562 | 28700 ft | 481 kts | 99° |
| 2026-05-04 18:45 | 60.10304 | 13.66672 | 28697 ft | 475 kts | 100° |
| 2026-05-04 18:45 | 60.09368 | 13.79772 | 28694 ft | 475 kts | 100° |
| 2026-05-04 18:46 | 60.08419 | 13.92870 | 28686 ft | 475 kts | 100° |
| 2026-05-04 18:46 | 60.07463 | 14.05961 | 28685 ft | 475 kts | 100° |
| 2026-05-04 18:47 | 60.06495 | 14.19018 | 28666 ft | 474 kts | 101° |
| 2026-05-04 18:47 | 60.05511 | 14.32042 | 28684 ft | 473 kts | 101° |
| 2026-05-04 18:48 | 60.04520 | 14.45045 | 28454 ft | 471 kts | 101° |
| 2026-05-04 18:48 | 60.04025 | 14.51494 | 28184 ft | 468 kts | 101° |
| 2026-05-04 18:48 | 60.03530 | 14.57905 | 27803 ft | 466 kts | 101° |
| 2026-05-04 18:48 | 60.03033 | 14.64287 | 27432 ft | 463 kts | 101° |
| 2026-05-04 18:49 | 60.02537 | 14.70639 | 27042 ft | 461 kts | 101° |
| 2026-05-04 18:49 | 60.02042 | 14.76948 | 26652 ft | 458 kts | 101° |
| 2026-05-04 18:49 | 60.01546 | 14.83221 | 26270 ft | 455 kts | 102° |
| 2026-05-04 18:49 | 60.01046 | 14.89451 | 25884 ft | 453 kts | 102° |
| 2026-05-04 18:50 | 60.00544 | 14.95654 | 25482 ft | 451 kts | 102° |
| 2026-05-04 18:50 | 60.00043 | 15.01826 | 25073 ft | 449 kts | 102° |
| 2026-05-04 18:50 | 59.99544 | 15.07964 | 24670 ft | 447 kts | 102° |
| 2026-05-04 18:50 | 59.99043 | 15.14079 | 24248 ft | 445 kts | 102° |
| 2026-05-04 18:51 | 59.98540 | 15.20173 | 23833 ft | 444 kts | 102° |
| 2026-05-04 18:51 | 59.98035 | 15.26239 | 23414 ft | 442 kts | 102° |
| 2026-05-04 18:51 | 59.97527 | 15.32285 | 22948 ft | 441 kts | 102° |
| 2026-05-04 18:51 | 59.97019 | 15.38307 | 22492 ft | 438 kts | 102° |
| 2026-05-04 18:52 | 59.96516 | 15.44267 | 22098 ft | 433 kts | 102° |
| 2026-05-04 18:52 | 59.96017 | 15.50179 | 21679 ft | 430 kts | 102° |
| 2026-05-04 18:52 | 59.95521 | 15.56026 | 21267 ft | 427 kts | 103° |
| 2026-05-04 18:52 | 59.95023 | 15.61847 | 20858 ft | 424 kts | 103° |
| 2026-05-04 18:53 | 59.94525 | 15.67614 | 20451 ft | 421 kts | 103° |
| 2026-05-04 18:53 | 59.94026 | 15.73348 | 20040 ft | 418 kts | 103° |
| 2026-05-04 18:53 | 59.93524 | 15.79044 | 19637 ft | 416 kts | 103° |
| 2026-05-04 18:53 | 59.93024 | 15.84702 | 19230 ft | 414 kts | 103° |
| 2026-05-04 18:54 | 59.92528 | 15.90336 | 18825 ft | 412 kts | 103° |
| 2026-05-04 18:54 | 59.92034 | 15.95941 | 18425 ft | 410 kts | 102° |
| 2026-05-04 18:54 | 59.91546 | 16.01443 | 18022 ft | 408 kts | 102° |
| 2026-05-04 18:54 | 59.91053 | 16.06991 | 17567 ft | 404 kts | 103° |
| 2026-05-04 18:55 | 59.90561 | 16.12468 | 17188 ft | 400 kts | 103° |
| 2026-05-04 18:55 | 59.89582 | 16.23245 | 16402 ft | 391 kts | 103° |
| 2026-05-04 18:55 | 59.89098 | 16.28536 | 16014 ft | 386 kts | 103° |
| 2026-05-04 18:56 | 59.88617 | 16.33761 | 15635 ft | 381 kts | 103° |
| 2026-05-04 18:56 | 59.88142 | 16.38922 | 15257 ft | 377 kts | 102° |
| 2026-05-04 18:56 | 59.87671 | 16.44024 | 14883 ft | 372 kts | 102° |
| 2026-05-04 18:56 | 59.87204 | 16.49065 | 14513 ft | 368 kts | 102° |
| 2026-05-04 18:57 | 59.86739 | 16.54042 | 14141 ft | 363 kts | 102° |
| 2026-05-04 18:57 | 59.86277 | 16.58956 | 13782 ft | 359 kts | 102° |
| 2026-05-04 18:57 | 59.85820 | 16.63804 | 13403 ft | 354 kts | 102° |
| 2026-05-04 18:57 | 59.85368 | 16.68590 | 13005 ft | 349 kts | 103° |
| 2026-05-04 18:58 | 59.84921 | 16.73298 | 12667 ft | 344 kts | 103° |
| 2026-05-04 18:58 | 59.84478 | 16.77949 | 12306 ft | 340 kts | 103° |
| 2026-05-04 18:58 | 59.84037 | 16.82538 | 11959 ft | 336 kts | 103° |
| 2026-05-04 18:58 | 59.83598 | 16.87073 | 11610 ft | 332 kts | 103° |
| 2026-05-04 18:59 | 59.83163 | 16.91567 | 11256 ft | 329 kts | 103° |
| 2026-05-04 18:59 | 59.82734 | 16.96017 | 10912 ft | 326 kts | 101° |
| 2026-05-04 18:59 | 59.82565 | 17.00494 | 10566 ft | 325 kts | 88° |
| 2026-05-04 18:59 | 59.82788 | 17.04946 | 10186 ft | 323 kts | 82° |
| 2026-05-04 19:00 | 59.83051 | 17.09377 | 9813 ft | 322 kts | 82° |
| 2026-05-04 19:00 | 59.83306 | 17.13777 | 9491 ft | 318 kts | 82° |
| 2026-05-04 19:00 | 59.83557 | 17.18119 | 9085 ft | 316 kts | 82° |
| 2026-05-04 19:00 | 59.83709 | 17.22458 | 8749 ft | 313 kts | 92° |
| 2026-05-04 19:01 | 59.83385 | 17.26671 | 8364 ft | 311 kts | 107° |
| 2026-05-04 19:01 | 59.82589 | 17.30630 | 7964 ft | 308 kts | 118° |
| 2026-05-04 19:01 | 59.81888 | 17.34638 | 7542 ft | 309 kts | 97° |
| 2026-05-04 19:01 | 59.81989 | 17.38874 | 7134 ft | 307 kts | 79° |
| 2026-05-04 19:02 | 59.82359 | 17.43031 | 6857 ft | 301 kts | 78° |
| 2026-05-04 19:02 | 59.82736 | 17.47085 | 6589 ft | 297 kts | 78° |
| 2026-05-04 19:02 | 59.83112 | 17.51106 | 6333 ft | 295 kts | 78° |
| 2026-05-04 19:02 | 59.83485 | 17.55105 | 6084 ft | 294 kts | 78° |
| 2026-05-04 19:03 | 59.83856 | 17.59095 | 5820 ft | 293 kts | 78° |
| 2026-05-04 19:03 | 59.84223 | 17.63072 | 5549 ft | 292 kts | 78° |
| 2026-05-04 19:03 | 59.84588 | 17.67041 | 5298 ft | 291 kts | 78° |
| 2026-05-04 19:03 | 59.84953 | 17.70992 | 5054 ft | 291 kts | 78° |
| 2026-05-04 19:04 | 59.85321 | 17.74944 | 4799 ft | 290 kts | 78° |
| 2026-05-04 19:04 | 59.85691 | 17.78875 | 4544 ft | 287 kts | 78° |
| 2026-05-04 19:04 | 59.86053 | 17.82739 | 4272 ft | 282 kts | 78° |
| 2026-05-04 19:04 | 59.86406 | 17.86545 | 4009 ft | 278 kts | 78° |
| 2026-05-04 19:05 | 59.86757 | 17.90293 | 3755 ft | 273 kts | 78° |
| 2026-05-04 19:05 | 59.87101 | 17.93955 | 3601 ft | 265 kts | 78° |
| 2026-05-04 19:05 | 59.87339 | 17.97539 | 3429 ft | 258 kts | 92° |
| 2026-05-04 19:05 | 59.86791 | 18.00818 | 3277 ft | 247 kts | 131° |
| 2026-05-04 19:06 | 59.85469 | 18.02581 | 3254 ft | 220 kts | 172° |
| 2026-05-04 19:06 | 59.83994 | 18.02745 | 3232 ft | 209 kts | 192° |
| 2026-05-04 19:06 | 59.82563 | 18.02334 | 3210 ft | 207 kts | 197° |
| 2026-05-04 19:06 | 59.81183 | 18.01838 | 3182 ft | 199 kts | 197° |
| 2026-05-04 19:07 | 59.79853 | 18.01352 | 3073 ft | 191 kts | 198° |
| 2026-05-04 19:07 | 59.78567 | 18.00880 | 2904 ft | 187 kts | 199° |
| 2026-05-04 19:07 | 59.77296 | 18.00414 | 2628 ft | 184 kts | 199° |
| 2026-05-04 19:07 | 59.76042 | 17.99955 | 2396 ft | 182 kts | 199° |
| 2026-05-04 19:08 | 59.74799 | 17.99500 | 2147 ft | 181 kts | 199° |
| 2026-05-04 19:08 | 59.73597 | 17.99066 | 1903 ft | 168 kts | 200° |
| 2026-05-04 19:08 | 59.72499 | 17.98670 | 1682 ft | 153 kts | 200° |
| 2026-05-04 19:08 | 59.71494 | 17.98305 | 1477 ft | 141 kts | 200° |
| 2026-05-04 19:09 | 59.70547 | 17.97956 | 1298 ft | 137 kts | 200° |
| 2026-05-04 19:09 | 59.69609 | 17.97612 | 1116 ft | 137 kts | 199° |
| 2026-05-04 19:09 | 59.68681 | 17.97282 | 957 ft | 134 kts | 198° |
| 2026-05-04 19:09 | 59.67762 | 17.96947 | 761 ft | 134 kts | 196° |
| 2026-05-04 19:10 | 59.66842 | 17.96622 | 547 ft | 134 kts | 195° |
| 2026-05-04 19:10 | 59.65933 | 17.96275 | 378 ft | 133 kts | 196° |
| 2026-05-04 19:10 | 59.65029 | 17.95951 | 173 ft | 131 kts | 196° |
| 2026-05-04 19:10 | 59.64191 | 17.95638 | 112 ft | 108 kts | 190° |
| 2026-05-04 19:11 | 59.63632 | 17.95436 | 118 ft | 56 kts | 191° |
| 2026-05-04 19:11 | 59.63363 | 17.95234 | 121 ft | 34 kts | 216° |
| 2026-05-04 19:11 | 59.63244 | 17.95017 | 124 ft | 16 kts | 248° |
| 2026-05-04 19:11 | 59.63322 | 17.94916 | 121 ft | 18 kts | 9° |
| 2026-05-04 19:12 | 59.63466 | 17.94968 | 119 ft | 24 kts | 10° |
| 2026-05-04 19:12 | 59.63828 | 17.95099 | 110 ft | 27 kts | 11° |
| 2026-05-04 19:12 | 59.64015 | 17.95167 | 109 ft | 27 kts | 10° |
| 2026-05-04 19:13 | 59.64200 | 17.95235 | 107 ft | 28 kts | 11° |
| 2026-05-04 19:13 | 59.64398 | 17.95306 | 106 ft | 29 kts | 10° |
| 2026-05-04 19:13 | 59.64601 | 17.95381 | 105 ft | 29 kts | 10° |
| 2026-05-04 19:13 | 59.64785 | 17.95448 | 107 ft | 27 kts | 11° |
| 2026-05-04 19:14 | 59.64969 | 17.95516 | 111 ft | 25 kts | 7° |
| 2026-05-04 19:14 | 59.65130 | 17.95471 | 117 ft | 22 kts | 345° |
| 2026-05-04 19:14 | 59.65276 | 17.95401 | 124 ft | 21 kts | 340° |
| 2026-05-04 19:14 | 59.65416 | 17.95320 | 126 ft | 22 kts | 345° |
| 2026-05-04 19:15 | 59.65567 | 17.95241 | 128 ft | 23 kts | 345° |
| 2026-05-04 19:15 | 59.65699 | 17.95168 | 129 ft | 13 kts | 343° |
| 2026-05-04 19:15 | 59.65750 | 17.95029 | 125 ft | 14 kts | 262° |
| 2026-05-04 19:15 | 59.65726 | 17.94829 | 123 ft | 16 kts | 256° |
| 2026-05-04 19:16 | 59.65708 | 17.94688 | 125 ft | 16 kts | 256° |
| 2026-05-04 19:16 | 59.65682 | 17.94482 | 125 ft | 16 kts | 255° |
| 2026-05-04 19:16 | 59.65655 | 17.94266 | 123 ft | 17 kts | 256° |
| 2026-05-04 19:16 | 59.65624 | 17.94018 | 120 ft | 20 kts | 256° |
| 2026-05-04 19:17 | 59.65583 | 17.93863 | 114 ft | 10 kts | 187° |
| 2026-05-04 19:17 | 59.65510 | 17.93896 | 113 ft | 11 kts | 165° |
| 2026-05-04 19:17 | 59.65453 | 17.93925 | 113 ft | 6 kts | 166° |
| 2026-05-04 19:17 | 59.65422 | 17.93940 | 113 ft | 0 kts | 167° |
| 2026-05-04 19:18 | 59.65409 | 17.93923 | 113 ft | 7 kts | 232° |
| 2026-05-04 19:18 | 59.65392 | 17.93812 | 112 ft | 6 kts | 256° |
| 2026-05-04 19:19 | 59.65390 | 17.93790 | 112 ft | 0 kts | 256° |